createdAt,value
2018-08-25T00:00:57.075Z,69.54
2018-08-25T00:01:57.065Z,69.64
2018-08-25T00:02:57.052Z,69.74
2018-08-25T00:03:57.030Z,69.35
2018-08-25T00:04:57.032Z,69.26
2018-08-25T00:05:57.008Z,70.12
2018-08-25T00:06:56.986Z,70.50
2018-08-25T00:07:56.967Z,69.83
2018-08-25T00:08:56.954Z,69.35
2018-08-25T00:09:56.951Z,69.64
2018-08-25T00:10:56.920Z,69.74
2018-08-25T00:11:56.901Z,69.74
2018-08-25T00:12:56.890Z,70.03
2018-08-25T00:13:56.873Z,69.17
2018-08-25T00:14:56.859Z,69.74
2018-08-25T00:15:56.858Z,69.74
2018-08-25T00:16:56.871Z,69.64
2018-08-25T00:17:56.814Z,69.64
2018-08-25T00:18:56.802Z,69.45
2018-08-25T00:19:56.781Z,69.26
2018-08-25T00:20:56.759Z,69.54
2018-08-25T00:21:56.767Z,69.93
2018-08-25T00:22:56.733Z,69.26
2018-08-25T00:23:56.719Z,69.74
2018-08-25T00:24:56.700Z,69.45
2018-08-25T00:25:56.700Z,69.54
2018-08-25T00:26:56.670Z,69.45
2018-08-25T00:27:56.656Z,69.54
2018-08-25T00:28:56.638Z,69.64
2018-08-25T00:29:56.619Z,69.45
2018-08-25T00:30:56.630Z,69.83
2018-08-25T00:31:56.595Z,69.45
2018-08-25T00:32:56.588Z,69.26
2018-08-25T00:33:56.562Z,69.17
2018-08-25T00:34:56.546Z,69.74
2018-08-25T00:35:56.530Z,70.12
2018-08-25T00:36:56.551Z,69.54
2018-08-25T00:37:56.499Z,69.83
2018-08-25T00:38:56.482Z,69.64
2018-08-25T00:39:56.469Z,69.93
2018-08-25T00:40:56.456Z,70.12
2018-08-25T00:41:56.451Z,69.64
2018-08-25T00:42:56.415Z,70.31
2018-08-25T00:43:56.400Z,70.03
2018-08-25T00:44:56.400Z,70.41
2018-08-25T00:45:56.379Z,70.41
2018-08-25T00:46:56.374Z,70.41
2018-08-25T00:47:56.396Z,70.03
2018-08-25T00:48:56.327Z,69.83
2018-08-25T00:49:56.317Z,70.21
2018-08-25T00:50:56.295Z,70.41
2018-08-25T00:51:56.281Z,70.41
2018-08-25T00:52:56.282Z,70.79
2018-08-25T00:53:56.247Z,70.89
2018-08-25T00:54:56.231Z,70.60
2018-08-25T00:55:56.217Z,70.60
2018-08-25T00:56:56.214Z,70.50
2018-08-25T00:57:56.185Z,70.60
2018-08-25T00:58:56.181Z,70.79
2018-08-25T00:59:56.806Z,71.37
2018-08-25T01:00:56.139Z,71.37
2018-08-25T01:01:56.123Z,71.17
2018-08-25T01:02:56.121Z,71.37
2018-08-25T01:03:56.096Z,71.46
2018-08-25T01:04:56.073Z,71.84
2018-08-25T01:05:56.061Z,71.94
2018-08-25T01:06:56.046Z,71.75
2018-08-25T01:07:56.041Z,71.84
2018-08-25T01:08:56.012Z,71.75
2018-08-25T01:09:55.997Z,71.56
2018-08-25T01:10:55.993Z,71.66
2018-08-25T01:11:55.981Z,71.84
2018-08-25T01:12:55.949Z,72.38
2018-08-25T01:13:55.933Z,72.38
2018-08-25T01:14:55.914Z,72.32
2018-08-25T01:15:55.905Z,72.38
2018-08-25T01:16:55.900Z,72.09
2018-08-25T01:17:55.864Z,72.09
2018-08-25T01:18:55.873Z,72.32
2018-08-25T01:19:55.853Z,72.32
2018-08-25T01:20:55.818Z,72.58
2018-08-25T01:21:55.803Z,72.52
2018-08-25T01:22:55.805Z,72.48
2018-08-25T01:23:55.772Z,72.61
2018-08-25T01:24:55.760Z,72.61
2018-08-25T01:25:55.740Z,72.42
2018-08-25T01:26:55.728Z,72.61
2018-08-25T01:27:55.723Z,72.32
2018-08-25T01:28:55.694Z,72.32
2018-08-25T01:29:55.678Z,72.52
2018-08-25T01:30:55.660Z,71.84
2018-08-25T01:31:55.648Z,71.66
2018-08-25T01:32:55.648Z,71.75
2018-08-25T01:33:55.625Z,72.13
2018-08-25T01:34:55.598Z,72.23
2018-08-25T01:35:55.582Z,72.61
2018-08-25T01:36:55.576Z,72.42
2018-08-25T01:37:55.555Z,72.23
2018-08-25T01:38:55.553Z,72.32
2018-08-25T01:39:55.518Z,72.52
2018-08-25T01:40:55.505Z,72.32
2018-08-25T01:41:55.492Z,72.13
2018-08-25T01:42:55.469Z,72.42
2018-08-25T01:43:55.456Z,72.99
2018-08-25T01:44:55.453Z,72.32
2018-08-25T01:45:55.428Z,72.71
2018-08-25T01:46:55.400Z,72.80
2018-08-25T01:47:55.383Z,72.99
2018-08-25T01:48:55.392Z,72.99
2018-08-25T01:49:55.360Z,72.99
2018-08-25T01:50:55.357Z,72.90
2018-08-25T01:51:55.323Z,73.09
2018-08-25T01:52:55.312Z,73.28
2018-08-25T01:53:55.299Z,72.90
2018-08-25T01:54:55.292Z,73.19
2018-08-25T01:55:55.267Z,72.71
2018-08-25T01:56:55.245Z,73.09
2018-08-25T01:57:55.230Z,73.09
2018-08-25T01:58:55.216Z,73.28
2018-08-25T01:59:55.221Z,72.42
2018-08-25T02:00:55.186Z,72.80
2018-08-25T02:01:55.166Z,72.71
2018-08-25T02:02:55.153Z,72.80
2018-08-25T02:03:55.138Z,73.09
2018-08-25T02:04:55.115Z,73.57
2018-08-25T02:05:55.116Z,74.24
2018-08-25T02:06:55.089Z,74.33
2018-08-25T02:07:55.064Z,75.10
2018-08-25T02:08:55.057Z,75.39
2018-08-25T02:09:55.042Z,75.58
2018-08-25T02:10:55.049Z,76.50
2018-08-25T02:11:55.008Z,77.17
2018-08-25T02:12:55.012Z,77.75
2018-08-25T02:13:54.975Z,78.51
2018-08-25T02:14:54.961Z,79.37
2018-08-25T02:15:54.944Z,81.96
2018-08-25T02:16:54.925Z,82.24
2018-08-25T02:17:54.914Z,82.11
2018-08-25T02:18:54.910Z,81.73
2018-08-25T02:19:54.876Z,83.26
2018-08-25T02:20:54.865Z,83.26
2018-08-25T02:21:54.849Z,83.73
2018-08-25T02:22:54.844Z,84.50
2018-08-25T02:23:54.826Z,83.83
2018-08-25T02:24:54.798Z,84.69
2018-08-25T02:25:54.777Z,84.22
2018-08-25T02:26:54.764Z,84.41
2018-08-25T02:27:54.767Z,84.50
2018-08-25T02:28:54.754Z,84.31
2018-08-25T02:29:54.716Z,84.79
2018-08-25T02:30:54.700Z,84.12
2018-08-25T02:31:54.681Z,84.79
2018-08-25T02:32:54.668Z,84.79
2018-08-25T02:33:54.676Z,85.65
2018-08-25T02:35:15.651Z,86.22
2018-08-25T02:35:54.624Z,85.36
2018-08-25T02:36:54.607Z,86.22
2018-08-25T02:37:54.583Z,87.66
2018-08-25T02:38:54.571Z,87.47
2018-08-25T02:39:54.555Z,87.27
2018-08-25T02:40:54.572Z,88.04
2018-08-25T02:41:54.530Z,89.76
2018-08-25T02:42:54.512Z,91.49
2018-08-25T02:43:54.486Z,89.58
2018-08-25T02:44:54.472Z,89.00
2018-08-25T02:45:54.476Z,89.09
2018-08-25T02:46:54.438Z,89.62
2018-08-25T02:47:54.429Z,91.49
2018-08-25T02:48:54.411Z,91.92
2018-08-25T02:49:54.396Z,93.26
2018-08-25T02:50:54.393Z,95.56
2018-08-25T02:51:54.364Z,96.22
2018-08-25T02:52:54.347Z,96.22
2018-08-25T02:53:54.329Z,97.37
2018-08-25T02:54:54.308Z,97.18
2018-08-25T02:55:54.312Z,97.56
2018-08-25T02:56:54.282Z,99.99
2018-08-25T02:57:54.265Z,99.99
2018-08-25T02:58:54.246Z,99.99
2018-08-25T02:59:54.231Z,99.99
2018-08-25T03:00:54.230Z,99.99
2018-08-25T03:01:54.199Z,99.99
2018-08-25T03:02:54.202Z,99.99
2018-08-25T03:03:54.165Z,99.99
2018-08-25T03:04:54.152Z,99.99
2018-08-25T03:05:54.132Z,99.99
2018-08-25T03:06:54.115Z,99.99
2018-08-25T03:07:54.103Z,99.99
2018-08-25T03:08:54.100Z,99.99
2018-08-25T03:09:54.066Z,99.99
2018-08-25T03:10:54.049Z,99.99
2018-08-25T03:11:54.029Z,99.99
2018-08-25T03:12:54.037Z,99.99
2018-08-25T03:13:54.137Z,99.99
2018-08-25T03:14:53.982Z,99.99
2018-08-25T03:15:53.967Z,99.99
2018-08-25T03:17:14.958Z,99.99
2018-08-25T03:17:53.929Z,99.99
2018-08-25T03:18:53.918Z,99.99
2018-08-25T03:19:53.899Z,99.99
2018-08-25T03:20:53.881Z,99.99
2018-08-25T03:21:53.871Z,99.99
2018-08-25T03:22:53.864Z,99.99
2018-08-25T03:23:53.840Z,99.99
2018-08-25T03:24:53.814Z,99.99
2018-08-25T03:25:53.795Z,99.99
2018-08-25T03:26:53.778Z,99.99
2018-08-25T03:27:53.783Z,99.99
2018-08-25T03:28:53.749Z,99.99
2018-08-25T03:29:53.732Z,99.99
2018-08-25T03:30:53.714Z,99.99
2018-08-25T03:31:53.698Z,99.99
2018-08-25T03:32:53.701Z,99.99
2018-08-25T03:33:53.658Z,99.99
2018-08-25T03:34:53.643Z,99.99
2018-08-25T03:35:53.627Z,99.99
2018-08-25T03:36:53.610Z,99.99
2018-08-25T03:37:53.602Z,99.99
2018-08-25T03:38:53.605Z,99.99
2018-08-25T03:39:53.556Z,99.99
2018-08-25T03:40:53.549Z,99.99
2018-08-25T03:41:53.527Z,99.99
2018-08-25T03:42:53.519Z,99.99
2018-08-25T03:43:53.492Z,99.99
2018-08-25T03:44:53.478Z,99.99
2018-08-25T03:45:53.477Z,99.99
2018-08-25T03:46:53.441Z,99.99
2018-08-25T03:47:53.430Z,99.99
2018-08-25T03:48:53.419Z,99.99
2018-08-25T03:49:53.393Z,99.99
2018-08-25T03:50:53.371Z,99.99
2018-08-25T03:51:53.381Z,99.99
2018-08-25T03:52:53.341Z,99.99
2018-08-25T03:53:53.322Z,99.99
2018-08-25T03:54:53.300Z,99.99
2018-08-25T03:55:53.295Z,99.99
2018-08-25T03:56:53.287Z,99.99
2018-08-25T03:57:53.252Z,99.99
2018-08-25T03:58:53.245Z,99.99
2018-08-25T03:59:53.217Z,99.99
2018-08-25T04:00:53.203Z,99.99
2018-08-25T04:01:53.185Z,99.99
2018-08-25T04:02:53.174Z,99.99
2018-08-25T04:03:53.154Z,99.99
2018-08-25T04:04:53.131Z,99.99
2018-08-25T04:05:53.132Z,99.99
2018-08-25T04:06:53.101Z,99.99
2018-08-25T04:07:53.077Z,99.99
2018-08-25T04:08:53.089Z,99.99
2018-08-25T04:09:53.048Z,99.99
2018-08-25T04:10:53.048Z,99.99
2018-08-25T04:11:53.016Z,99.99
2018-08-25T04:12:52.992Z,99.99
2018-08-25T04:13:52.984Z,99.99
2018-08-25T04:14:53.006Z,99.99
2018-08-25T04:15:52.956Z,99.99
2018-08-25T04:16:52.923Z,99.99
2018-08-25T04:17:52.912Z,99.99
2018-08-25T04:18:52.891Z,99.99
2018-08-25T04:19:52.886Z,99.99
2018-08-25T04:20:52.872Z,99.99
2018-08-25T04:21:52.841Z,99.99
2018-08-25T04:22:52.828Z,99.99
2018-08-25T04:23:52.813Z,99.99
2018-08-25T04:24:52.804Z,99.99
2018-08-25T04:25:52.775Z,99.99
2018-08-25T04:26:52.773Z,99.99
2018-08-25T04:27:52.737Z,99.99
2018-08-25T04:28:52.724Z,99.99
2018-08-25T04:29:52.715Z,99.99
2018-08-25T04:30:52.686Z,99.99
2018-08-25T04:31:52.682Z,99.99
2018-08-25T04:32:52.655Z,99.99
2018-08-25T04:33:52.633Z,99.99
2018-08-25T04:34:52.620Z,99.99
2018-08-25T04:35:52.601Z,99.99
2018-08-25T04:36:52.591Z,99.99
2018-08-25T04:37:52.584Z,99.99
2018-08-25T04:38:52.556Z,99.99
2018-08-25T04:39:52.535Z,99.99
2018-08-25T04:40:52.519Z,99.99
2018-08-25T04:41:52.494Z,99.99
2018-08-25T04:42:52.497Z,99.99
2018-08-25T04:43:52.473Z,99.99
2018-08-25T04:44:52.448Z,99.99
2018-08-25T04:45:52.448Z,99.99
2018-08-25T04:46:52.416Z,99.99
2018-08-25T04:47:53.449Z,99.99
2018-08-25T04:48:52.380Z,99.99
2018-08-25T04:49:52.367Z,99.99
2018-08-25T04:50:52.348Z,99.99
2018-08-25T04:51:52.326Z,99.99
2018-08-25T04:52:52.345Z,99.99
2018-08-25T04:53:52.296Z,99.99
2018-08-25T04:54:52.299Z,99.99
2018-08-25T04:55:52.274Z,99.99
2018-08-25T04:56:52.244Z,99.99
2018-08-25T04:57:52.239Z,99.99
2018-08-25T04:58:52.222Z,99.99
2018-08-25T04:59:52.203Z,99.99
2018-08-25T05:00:52.182Z,99.99
2018-08-25T05:01:52.194Z,99.99
2018-08-25T05:02:52.176Z,99.99
2018-08-25T05:03:52.124Z,99.99
2018-08-25T05:04:52.105Z,99.99
2018-08-25T05:05:52.090Z,99.99
2018-08-25T05:06:52.074Z,99.99
2018-08-25T05:07:52.091Z,99.99
2018-08-25T05:08:52.052Z,99.99
2018-08-25T05:09:52.023Z,99.99
2018-08-25T05:10:52.020Z,99.99
2018-08-25T05:11:51.989Z,99.99
2018-08-25T05:12:51.972Z,99.99
2018-08-25T05:13:51.954Z,99.99
2018-08-25T05:14:51.950Z,99.99
2018-08-25T05:15:51.918Z,99.99
2018-08-25T05:16:51.919Z,99.99
2018-08-25T05:17:51.882Z,99.99
2018-08-25T05:18:51.865Z,99.99
2018-08-25T05:19:52.137Z,99.99
2018-08-25T05:20:51.833Z,99.99
2018-08-25T05:21:51.839Z,99.99
2018-08-25T05:22:51.804Z,99.99
2018-08-25T05:23:52.356Z,99.99
2018-08-25T05:24:51.763Z,99.99
2018-08-25T05:25:51.750Z,99.99
2018-08-25T05:26:51.747Z,99.99
2018-08-25T05:27:51.714Z,99.99
2018-08-25T05:28:51.713Z,99.99
2018-08-25T05:29:51.690Z,99.99
2018-08-25T05:30:51.663Z,99.99
2018-08-25T05:31:51.664Z,99.99
2018-08-25T05:32:51.629Z,99.99
2018-08-25T05:33:51.629Z,99.99
2018-08-25T05:34:51.604Z,99.99
2018-08-25T05:35:51.573Z,99.99
2018-08-25T05:36:51.556Z,99.99
2018-08-25T05:37:51.544Z,99.99
2018-08-25T05:38:51.524Z,99.99
2018-08-25T05:39:51.532Z,99.99
2018-08-25T05:40:51.492Z,99.99
2018-08-25T05:41:51.470Z,99.99
2018-08-25T05:42:51.469Z,99.99
2018-08-25T05:43:51.441Z,99.99
2018-08-25T05:44:51.444Z,99.99
2018-08-25T05:45:51.405Z,99.99
2018-08-25T05:46:51.390Z,99.99
2018-08-25T05:47:51.370Z,99.99
2018-08-25T05:48:51.354Z,99.99
2018-08-25T05:49:51.340Z,99.99
2018-08-25T05:50:51.333Z,99.99
2018-08-25T05:51:51.304Z,99.99
2018-08-25T05:52:51.294Z,99.99
2018-08-25T05:53:51.266Z,99.99
2018-08-25T05:54:51.268Z,99.99
2018-08-25T05:55:51.252Z,99.99
2018-08-25T05:56:51.217Z,99.99
2018-08-25T05:57:51.211Z,99.99
2018-08-25T05:58:51.183Z,99.99
2018-08-25T05:59:51.170Z,99.99
2018-08-25T06:00:51.179Z,99.99
2018-08-25T06:01:51.133Z,99.99
2018-08-25T06:02:51.119Z,99.99
2018-08-25T06:03:51.100Z,99.99
2018-08-25T06:04:51.081Z,99.99
2018-08-25T06:05:51.078Z,99.99
2018-08-25T06:06:51.062Z,99.99
2018-08-25T06:07:51.030Z,99.99
2018-08-25T06:08:51.016Z,99.99
2018-08-25T06:09:50.997Z,99.99
2018-08-25T06:10:50.978Z,99.99
2018-08-25T06:11:50.978Z,99.99
2018-08-25T06:12:50.958Z,99.99
2018-08-25T06:13:50.930Z,99.99
2018-08-25T06:14:50.910Z,99.99
2018-08-25T06:15:50.897Z,99.99
2018-08-25T06:16:50.878Z,99.99
2018-08-25T06:17:50.896Z,99.99
2018-08-25T06:18:50.846Z,99.99
2018-08-25T06:19:50.826Z,99.99
2018-08-25T06:20:50.810Z,99.99
2018-08-25T06:21:50.794Z,99.99
2018-08-25T06:22:50.780Z,99.99
2018-08-25T06:23:50.772Z,99.99
2018-08-25T06:24:50.740Z,99.99
2018-08-25T06:25:50.728Z,99.99
2018-08-25T06:26:50.711Z,99.99
2018-08-25T06:27:50.708Z,99.99
2018-08-25T06:28:50.675Z,99.99
2018-08-25T06:29:50.817Z,99.99
2018-08-25T06:30:50.641Z,99.99
2018-08-25T06:31:50.625Z,99.99
2018-08-25T06:32:50.608Z,99.99
2018-08-25T06:33:50.619Z,99.99
2018-08-25T06:34:50.575Z,99.99
2018-08-25T06:35:50.575Z,99.99
2018-08-25T06:36:50.546Z,99.99
2018-08-25T06:37:50.527Z,99.99
2018-08-25T06:38:50.524Z,99.99
2018-08-25T06:39:50.494Z,99.99
2018-08-25T06:40:50.490Z,99.99
2018-08-25T06:41:50.458Z,99.99
2018-08-25T06:42:50.441Z,99.99
2018-08-25T06:43:50.423Z,99.99
2018-08-25T06:44:50.426Z,99.99
2018-08-25T06:45:50.403Z,99.99
2018-08-25T06:46:50.379Z,99.99
2018-08-25T06:47:50.352Z,99.99
2018-08-25T06:48:50.337Z,99.99
2018-08-25T06:49:50.342Z,99.99
2018-08-25T06:50:50.310Z,99.99
2018-08-25T06:51:50.307Z,99.99
2018-08-25T06:52:50.275Z,99.99
2018-08-25T06:53:50.290Z,99.99
2018-08-25T06:54:50.249Z,99.99
2018-08-25T06:55:50.235Z,99.99
2018-08-25T06:56:50.221Z,99.99
2018-08-25T06:57:50.193Z,99.99
2018-08-25T06:58:50.181Z,99.99
2018-08-25T06:59:50.159Z,99.99
2018-08-25T07:00:50.161Z,99.99
2018-08-25T07:01:50.126Z,99.99
2018-08-25T07:02:50.108Z,99.99
2018-08-25T07:03:50.092Z,99.99
2018-08-25T07:04:50.071Z,99.99
2018-08-25T07:05:50.088Z,99.99
2018-08-25T07:06:50.060Z,99.99
2018-08-25T07:07:50.028Z,99.99
2018-08-25T07:08:50.011Z,99.99
2018-08-25T07:09:49.991Z,99.99
2018-08-25T07:10:49.979Z,99.99
2018-08-25T07:11:49.976Z,99.99
2018-08-25T07:12:50.014Z,99.99
2018-08-25T07:13:49.940Z,99.99
2018-08-25T07:14:49.917Z,99.99
2018-08-25T07:15:49.898Z,99.99
2018-08-25T07:16:49.895Z,99.99
2018-08-25T07:17:49.862Z,99.99
2018-08-25T07:18:49.892Z,99.99
2018-08-25T07:19:49.826Z,99.99
2018-08-25T07:20:49.828Z,99.99
2018-08-25T07:21:49.807Z,99.99
2018-08-25T07:22:49.779Z,99.99
2018-08-25T07:23:49.764Z,99.99
2018-08-25T07:24:49.746Z,99.99
2018-08-25T07:25:49.766Z,99.99
2018-08-25T07:26:49.728Z,99.99
2018-08-25T07:27:49.699Z,99.99
2018-08-25T07:28:49.682Z,99.99
2018-08-25T07:29:49.679Z,99.99
2018-08-25T07:30:49.647Z,99.99
2018-08-25T07:31:49.648Z,99.99
2018-08-25T07:32:49.629Z,99.99
2018-08-25T07:33:49.602Z,99.99
2018-08-25T07:34:49.598Z,99.99
2018-08-25T07:35:49.569Z,99.99
2018-08-25T07:36:49.548Z,99.99
2018-08-25T07:37:49.533Z,99.99
2018-08-25T07:38:49.517Z,99.99
2018-08-25T07:39:49.502Z,99.99
2018-08-25T07:40:49.505Z,99.99
2018-08-25T07:41:49.516Z,99.99
2018-08-25T07:42:49.450Z,99.99
2018-08-25T07:43:49.433Z,99.99
2018-08-25T07:44:49.416Z,99.99
2018-08-25T07:45:49.417Z,99.99
2018-08-25T07:46:49.385Z,99.99
2018-08-25T07:47:49.365Z,99.99
2018-08-25T07:48:49.883Z,99.99
2018-08-25T07:49:49.929Z,99.76
2018-08-25T07:50:49.335Z,99.99
2018-08-25T07:51:49.306Z,99.99
2018-08-25T07:52:49.292Z,98.33
2018-08-25T07:53:49.336Z,99.99
2018-08-25T07:54:49.300Z,97.13
2018-08-25T07:55:49.241Z,97.71
2018-08-25T07:56:49.254Z,98.00
2018-08-25T07:57:49.215Z,96.75
2018-08-25T07:58:49.193Z,95.51
2018-08-25T08:00:10.186Z,95.22
2018-08-25T08:00:49.157Z,96.66
2018-08-25T08:01:49.165Z,99.99
2018-08-25T08:02:49.128Z,97.61
2018-08-25T08:03:49.113Z,96.84
2018-08-25T08:04:49.125Z,97.42
2018-08-25T08:05:49.073Z,98.81
2018-08-25T08:06:49.061Z,97.09
2018-08-25T08:07:49.067Z,96.61
2018-08-25T08:08:49.038Z,93.83
2018-08-25T08:09:49.018Z,96.61
2018-08-25T08:10:49.008Z,93.98
2018-08-25T08:11:48.990Z,96.27
2018-08-25T08:12:48.987Z,94.74
2018-08-25T08:13:48.955Z,94.36
2018-08-25T08:14:48.960Z,95.70
2018-08-25T08:15:48.925Z,94.12
2018-08-25T08:16:48.904Z,92.68
2018-08-25T08:17:48.893Z,92.58
2018-08-25T08:18:48.886Z,89.86
2018-08-25T08:19:48.856Z,88.61
2018-08-25T08:20:48.843Z,87.27
2018-08-25T08:21:48.828Z,88.03
2018-08-25T08:22:48.813Z,87.27
2018-08-25T08:23:48.811Z,87.27
2018-08-25T08:24:48.783Z,88.13
2018-08-25T08:25:48.765Z,87.74
2018-08-25T08:26:48.748Z,86.31
2018-08-25T08:27:48.735Z,86.41
2018-08-25T08:28:48.740Z,86.41
2018-08-25T08:29:48.721Z,84.88
2018-08-25T08:30:48.700Z,83.63
2018-08-25T08:31:48.670Z,82.67
2018-08-25T08:32:48.694Z,82.00
2018-08-25T08:33:48.661Z,83.44
2018-08-25T08:34:48.623Z,82.81
2018-08-25T08:35:48.610Z,82.52
2018-08-25T08:36:48.593Z,82.81
2018-08-25T08:37:48.579Z,82.62
2018-08-25T08:38:48.560Z,82.08
2018-08-25T08:39:48.562Z,81.89
2018-08-25T08:40:48.528Z,80.07
2018-08-25T08:41:48.536Z,79.88
2018-08-25T08:42:48.495Z,79.44
2018-08-25T08:43:48.481Z,79.91
2018-08-25T08:44:48.487Z,78.00
2018-08-25T08:45:48.468Z,76.12
2018-08-25T08:46:48.437Z,75.45
2018-08-25T08:47:48.424Z,75.82
2018-08-25T08:48:48.410Z,74.52
2018-08-25T08:49:48.406Z,73.60
2018-08-25T08:50:48.397Z,73.06
2018-08-25T08:51:48.361Z,70.98
2018-08-25T08:52:48.343Z,69.34
2018-08-25T08:53:48.331Z,67.19
2018-08-25T08:54:48.315Z,67.58
2018-08-25T08:55:48.316Z,66.46
2018-08-25T08:56:48.291Z,69.15
2018-08-25T08:57:48.272Z,68.19
2018-08-25T08:58:48.257Z,66.97
2018-08-25T08:59:48.243Z,64.53
2018-08-25T09:00:48.243Z,63.99
2018-08-25T09:01:48.214Z,63.70
2018-08-25T09:02:48.200Z,63.41
2018-08-25T09:03:48.184Z,62.48
2018-08-25T09:04:48.169Z,63.60
2018-08-25T09:05:48.172Z,63.48
2018-08-25T09:06:48.140Z,64.63
2018-08-25T09:07:48.126Z,64.28
2018-08-25T09:08:48.111Z,63.79
2018-08-25T09:09:48.099Z,63.70
2018-08-25T09:10:48.095Z,63.34
2018-08-25T09:11:48.120Z,62.45
2018-08-25T09:12:48.054Z,63.28
2018-08-25T09:13:48.046Z,60.55
2018-08-25T09:14:48.903Z,61.35
2018-08-25T09:15:48.034Z,63.25
2018-08-25T09:16:47.999Z,62.19
2018-08-25T09:17:47.985Z,62.09
2018-08-25T09:18:47.968Z,61.61
2018-08-25T09:19:47.954Z,61.65
2018-08-25T09:20:47.950Z,61.07
2018-08-25T09:21:47.924Z,60.64
2018-08-25T09:22:47.911Z,59.30
2018-08-25T09:23:47.897Z,59.03
2018-08-25T09:24:47.883Z,57.10
2018-08-25T09:25:47.894Z,58.20
2018-08-25T09:26:47.867Z,60.13
2018-08-25T09:27:47.849Z,60.68
2018-08-25T09:28:47.835Z,61.38
2018-08-25T09:29:47.817Z,60.52
2018-08-25T09:30:47.820Z,62.06
2018-08-25T09:31:47.807Z,60.13
2018-08-25T09:32:47.785Z,60.16
2018-08-25T09:33:47.773Z,57.65
2018-08-25T09:34:47.761Z,59.00
2018-08-25T09:35:47.799Z,60.16
2018-08-25T09:36:47.950Z,58.52
2018-08-25T09:37:47.729Z,58.65
2018-08-25T09:38:47.717Z,59.25
2018-08-25T09:39:47.708Z,58.10
2018-08-25T09:40:47.699Z,57.17
2018-08-25T09:41:47.765Z,58.26
2018-08-25T09:42:47.694Z,57.97
2018-08-25T09:43:47.664Z,57.01
2018-08-25T09:44:47.660Z,56.16
2018-08-25T09:45:47.650Z,55.78
2018-08-25T09:46:47.673Z,57.01
2018-08-25T09:47:47.645Z,56.91
2018-08-25T09:48:47.623Z,57.32
2018-08-25T09:49:47.616Z,57.42
2018-08-25T09:50:47.608Z,57.23
2018-08-25T09:51:47.602Z,57.59
2018-08-25T09:52:47.603Z,57.32
2018-08-25T09:53:47.586Z,55.65
2018-08-25T09:54:47.584Z,54.73
2018-08-25T09:55:47.572Z,53.06
2018-08-25T09:56:47.563Z,53.88
2018-08-25T09:57:47.578Z,55.55
2018-08-25T09:58:47.555Z,55.01
2018-08-25T09:59:47.540Z,55.15
2018-08-25T10:00:47.535Z,57.07
2018-08-25T10:01:47.528Z,56.88
2018-08-25T10:02:47.515Z,58.59
2018-08-25T10:03:47.524Z,60.30
2018-08-25T10:04:47.505Z,59.07
2018-08-25T10:05:47.500Z,57.78
2018-08-25T10:06:47.486Z,56.24
2018-08-25T10:07:47.482Z,55.59
2018-08-25T10:08:47.493Z,55.59
2018-08-25T10:09:47.469Z,53.49
2018-08-25T10:10:47.488Z,54.29
2018-08-25T10:11:47.453Z,53.61
2018-08-25T10:12:47.466Z,52.50
2018-08-25T10:13:47.441Z,53.39
2018-08-25T10:14:47.453Z,53.13
2018-08-25T10:15:47.428Z,52.41
2018-08-25T10:16:47.434Z,50.13
2018-08-25T10:17:47.413Z,52.65
2018-08-25T10:18:47.404Z,54.28
2018-08-25T10:19:47.430Z,56.80
2018-08-25T10:20:47.393Z,58.67
2018-08-25T10:21:47.383Z,59.11
2018-08-25T10:22:47.378Z,57.37
2018-08-25T10:23:47.380Z,58.95
2018-08-25T10:24:47.365Z,61.14
2018-08-25T10:25:47.375Z,62.23
2018-08-25T10:26:47.345Z,60.10
2018-08-25T10:27:47.414Z,60.10
2018-08-25T10:28:47.336Z,59.17
2018-08-25T10:29:47.327Z,58.95
2018-08-25T10:30:47.333Z,60.62
2018-08-25T10:31:47.381Z,62.41
2018-08-25T10:32:47.302Z,63.54
2018-08-25T10:33:47.291Z,63.79
2018-08-25T10:34:47.278Z,63.99
2018-08-25T10:35:47.288Z,64.95
2018-08-25T10:36:47.264Z,63.45
2018-08-25T10:37:47.251Z,61.19
2018-08-25T10:38:47.243Z,57.31
2018-08-25T10:39:47.234Z,56.09
2018-08-25T10:40:47.241Z,56.24
2018-08-25T10:41:47.324Z,54.05
2018-08-25T10:42:47.213Z,54.14
2018-08-25T10:43:47.198Z,54.50
2018-08-25T10:44:47.189Z,53.27
2018-08-25T10:45:47.197Z,52.65
2018-08-25T10:46:47.173Z,52.09
2018-08-25T10:47:47.162Z,50.04
2018-08-25T10:48:47.158Z,50.98
2018-08-25T10:49:47.147Z,49.95
2018-08-25T10:50:47.138Z,49.60
2018-08-25T10:51:47.147Z,49.65
2018-08-25T10:52:47.136Z,49.49
2018-08-25T10:53:47.130Z,48.69
2018-08-25T10:54:47.109Z,52.76
2018-08-25T10:55:47.102Z,54.47
2018-08-25T10:56:47.110Z,57.31
2018-08-25T10:57:47.090Z,58.34
2018-08-25T10:58:47.093Z,60.91
2018-08-25T10:59:47.077Z,61.04
2018-08-25T11:00:47.317Z,62.16
2018-08-25T11:01:47.074Z,64.66
2018-08-25T11:02:47.050Z,66.77
2018-08-25T11:03:47.042Z,65.30
2018-08-25T11:04:47.036Z,65.37
2018-08-25T11:05:47.024Z,64.66
2018-08-25T11:06:47.031Z,60.20
2018-08-25T11:07:47.007Z,60.32
2018-08-25T11:08:47.043Z,57.14
2018-08-25T11:09:46.989Z,55.83
2018-08-25T11:10:46.978Z,53.93
2018-08-25T11:11:46.973Z,52.48
2018-08-25T11:12:46.961Z,53.47
2018-08-25T11:13:46.967Z,55.59
2018-08-25T11:14:46.947Z,55.62
2018-08-25T11:15:46.940Z,54.91
2018-08-25T11:16:46.947Z,54.50
2018-08-25T11:17:46.927Z,56.36
2018-08-25T11:18:46.915Z,54.72
2018-08-25T11:19:46.924Z,53.59
2018-08-25T11:20:46.911Z,52.21
2018-08-25T11:21:46.893Z,54.57
2018-08-25T11:22:46.880Z,58.01
2018-08-25T11:23:47.005Z,57.43
2018-08-25T11:24:46.869Z,57.50
2018-08-25T11:25:46.883Z,59.30
2018-08-25T11:26:46.853Z,61.39
2018-08-25T11:27:46.858Z,62.26
2018-08-25T11:28:46.839Z,62.06
2018-08-25T11:29:46.832Z,61.94
2018-08-25T11:30:46.819Z,62.23
2018-08-25T11:31:46.835Z,62.23
2018-08-25T11:32:46.820Z,62.93
2018-08-25T11:33:46.801Z,61.00
2018-08-25T11:34:46.788Z,60.39
2018-08-25T11:35:46.780Z,59.58
2018-08-25T11:36:46.780Z,58.97
2018-08-25T11:37:46.884Z,57.92
2018-08-25T11:38:46.768Z,57.72
2018-08-25T11:39:46.741Z,57.62
2018-08-25T11:40:46.733Z,58.40
2018-08-25T11:41:46.739Z,57.72
2018-08-25T11:42:46.716Z,56.95
2018-08-25T11:43:46.703Z,56.76
2018-08-25T11:44:46.699Z,56.14
2018-08-25T11:45:46.689Z,56.84
2018-08-25T11:46:46.692Z,54.55
2018-08-25T11:47:46.671Z,55.71
2018-08-25T11:48:46.673Z,54.62
2018-08-25T11:49:46.654Z,54.14
2018-08-25T11:50:46.645Z,55.65
2018-08-25T11:51:46.653Z,54.13
2018-08-25T11:52:46.698Z,52.58
2018-08-25T11:53:46.626Z,52.23
2018-08-25T11:54:46.614Z,54.79
2018-08-25T11:55:46.614Z,54.66
2018-08-25T11:56:46.605Z,56.09
2018-08-25T11:57:46.613Z,57.60
2018-08-25T11:58:46.587Z,57.98
2018-08-25T11:59:46.577Z,59.72
2018-08-25T12:00:46.573Z,60.20
2018-08-25T12:01:46.581Z,59.97
2018-08-25T12:02:46.570Z,59.49
2018-08-25T12:03:46.548Z,60.14
2018-08-25T12:04:46.536Z,60.62
2018-08-25T12:05:46.539Z,61.04
2018-08-25T12:06:46.524Z,62.29
2018-08-25T12:07:46.529Z,63.64
2018-08-25T12:08:46.516Z,64.09
2018-08-25T12:09:46.491Z,63.79
2018-08-25T12:10:46.485Z,63.64
2018-08-25T12:11:46.477Z,63.06
2018-08-25T12:12:46.465Z,62.90
2018-08-25T12:13:46.471Z,60.66
2018-08-25T12:14:46.444Z,61.07
2018-08-25T12:15:46.428Z,59.23
2018-08-25T12:16:46.418Z,57.60
2018-08-25T12:17:46.412Z,56.80
2018-08-25T12:18:46.402Z,57.45
2018-08-25T12:19:46.411Z,58.76
2018-08-25T12:20:46.379Z,60.14
2018-08-25T12:21:46.375Z,59.85
2018-08-25T12:22:46.357Z,60.14
2018-08-25T12:23:46.363Z,60.97
2018-08-25T12:24:46.343Z,61.16
2018-08-25T12:25:46.341Z,63.57
2018-08-25T12:26:46.317Z,63.12
2018-08-25T12:27:46.307Z,61.26
2018-08-25T12:28:46.310Z,61.46
2018-08-25T12:29:46.302Z,61.74
2018-08-25T12:30:46.272Z,62.51
2018-08-25T12:31:46.262Z,62.13
2018-08-25T12:32:46.260Z,63.64
2018-08-25T12:33:46.245Z,63.70
2018-08-25T12:34:46.303Z,64.50
2018-08-25T12:35:46.223Z,63.86
2018-08-25T12:36:46.212Z,62.00
2018-08-25T12:37:46.203Z,61.07
2018-08-25T12:38:46.194Z,60.39
2018-08-25T12:39:46.202Z,59.52
2018-08-25T12:40:46.169Z,61.00
2018-08-25T12:41:46.164Z,61.38
2018-08-25T12:42:46.151Z,60.38
2018-08-25T12:43:46.147Z,57.78
2018-08-25T12:44:46.148Z,56.91
2018-08-25T12:45:46.140Z,58.87
2018-08-25T12:46:46.116Z,55.90
2018-08-25T12:47:46.110Z,55.07
2018-08-25T12:48:46.164Z,54.84
2018-08-25T12:49:46.107Z,53.71
2018-08-25T12:50:46.097Z,53.33
2018-08-25T12:51:46.123Z,54.17
2018-08-25T12:52:46.070Z,54.91